| time (UTC) | temp C | wind direction | speed KPH | gust KPH | rain 1hr cm | rain 24hr cm | rain mn cm | humidity % | barometer mb |
| 20260509090412 | 12 | 152 | 3.2 | 4.8 | 0.00 | 0.00 | 0.00 | 85 | 1004.2 |
| 20260509085913 | 12 | 168 | 3.2 | 4.8 | 0.00 | 0.00 | 0.00 | 85 | 1004.2 |
| 20260509085412 | 12 | 150 | 4.8 | 4.8 | 0.00 | 0.00 | 0.00 | 85 | 1004.3 |
| 20260509084912 | 12 | 131 | 1.6 | 1.6 | 0.00 | 0.00 | 0.00 | 84 | 1004.3 |
| 20260509084412 | 12 | 124 | 4.8 | 6.4 | 0.00 | 0.00 | 0.00 | 84 | 1004.3 |
| 20260509083913 | 12 | 203 | 4.8 | 4.8 | 0.00 | 0.00 | 0.00 | 84 | 1004.3 |
| 20260509083412 | 12 | 153 | 1.6 | 3.2 | 0.00 | 0.00 | 0.00 | 84 | 1004.3 |
| 20260509082912 | 12 | 156 | 4.8 | 4.8 | 0.00 | 0.00 | 0.00 | 84 | 1004.3 |
| 20260509082413 | 12 | 162 | 3.2 | 3.2 | 0.00 | 0.00 | 0.00 | 83 | 1004.4 |
| 20260509081914 | 12 | 136 | 3.2 | 3.2 | 0.00 | 0.00 | 0.00 | 83 | 1004.3 |
| 20260509081412 | 12 | 175 | 3.2 | 4.8 | 0.00 | 0.00 | 0.00 | 83 | 1004.4 |
| 20260509080917 | 12 | 177 | 3.2 | 3.2 | 0.00 | 0.00 | 0.00 | 82 | 1004.3 |
| 20260509080414 | 12 | 192 | 3.2 | 4.8 | 0.00 | 0.00 | 0.00 | 82 | 1004.4 |
| 20260509075912 | 12 | 212 | 3.2 | 4.8 | 0.00 | 0.00 | 0.00 | 82 | 1004.4 |
| 20260509075413 | 13 | 147 | 3.2 | 4.8 | 0.00 | 0.00 | 0.00 | 82 | 1004.4 |
| 20260509074913 | 13 | 199 | 6.4 | 9.7 | 0.00 | 0.00 | 0.00 | 82 | 1004.4 |
| 20260509074412 | 13 | 189 | 3.2 | 4.8 | 0.00 | 0.00 | 0.00 | 81 | 1004.4 |
| 20260509073912 | 13 | 313 | 3.2 | 6.4 | 0.00 | 0.00 | 0.00 | 81 | 1004.4 |
| 20260509073413 | 13 | 217 | 3.2 | 6.4 | 0.00 | 0.00 | 0.00 | 81 | 1004.5 |
| 20260509072914 | 13 | 200 | 4.8 | 6.4 | 0.00 | 0.00 | 0.00 | 81 | 1004.5 |
| 20260509072412 | 13 | 201 | 6.4 | 11.3 | 0.00 | 0.00 | 0.00 | 81 | 1004.6 |
| 20260509071912 | 13 | 189 | 4.8 | 9.7 | 0.00 | 0.00 | 0.00 | 81 | 1004.6 |
| 20260509071412 | 12 | 194 | 8.0 | 12.9 | 0.00 | 0.00 | 0.00 | 81 | 1004.8 |
| 20260509070912 | 12 | 186 | 6.4 | 12.9 | 0.00 | 0.00 | 0.00 | 81 | 1005.0 |
| 20260509070413 | 12 | 198 | 6.4 | 11.3 | 0.00 | 0.00 | 0.00 | 83 | 1005.3 |
| 20260509065913 | 11 | 187 | 4.8 | 8.0 | 0.00 | 0.00 | 0.00 | 82 | 1005.4 |
| 20260509065412 | 11 | 172 | 4.8 | 4.8 | 0.00 | 0.00 | 0.00 | 80 | 1005.1 |
| 20260509064912 | 11 | 136 | 0.0 | 1.6 | 0.00 | 0.00 | 0.00 | 77 | 1004.9 |
| 20260509064412 | 11 | 118 | 1.6 | 1.6 | 0.00 | 0.00 | 0.00 | 77 | 1004.9 |
| 20260509063912 | 11 | 134 | 3.2 | 4.8 | 0.00 | 0.00 | 0.00 | 76 | 1004.8 |
| 20260509063412 | 10 | 201 | 1.6 | 3.2 | 0.00 | 0.00 | 0.00 | 75 | 1004.8 |
| 20260509062912 | 10 | 150 | 1.6 | 3.2 | 0.00 | 0.00 | 0.00 | 74 | 1004.7 |
| 20260509062412 | 10 | 120 | 1.6 | 3.2 | 0.00 | 0.00 | 0.00 | 73 | 1004.6 |
| 20260509061913 | 10 | 138 | 3.2 | 4.8 | 0.00 | 0.00 | 0.00 | 71 | 1004.7 |
| 20260509061412 | 10 | 131 | 3.2 | 6.4 | 0.00 | 0.00 | 0.00 | 70 | 1004.8 |
| 20260509060912 | 10 | 138 | 3.2 | 3.2 | 0.00 | 0.00 | 0.00 | 67 | 1004.9 |
| 20260509060413 | 10 | 117 | 4.8 | 6.4 | 0.00 | 0.00 | 0.00 | 65 | 1004.9 |
| 20260509055912 | 10 | 128 | 3.2 | 4.8 | 0.00 | 0.00 | 0.00 | 63 | 1004.9 |
| 20260509055412 | 10 | 147 | 3.2 | 3.2 | 0.00 | 0.00 | 0.00 | 61 | 1005.0 |
| 20260509054912 | 10 | 145 | 3.2 | 4.8 | 0.00 | 0.00 | 0.00 | 59 | 1005.1 |
| 20260509054413 | 10 | 142 | 3.2 | 3.2 | 0.00 | 0.00 | 0.00 | 57 | 1005.1 |
| 20260509053913 | 10 | 189 | 3.2 | 4.8 | 0.00 | 0.00 | 0.00 | 56 | 1005.1 |
| 20260509053412 | 10 | 111 | 1.6 | 3.2 | 0.00 | 0.00 | 0.00 | 55 | 1005.2 |
| 20260509052912 | 10 | 163 | 3.2 | 3.2 | 0.00 | 0.00 | 0.00 | 54 | 1005.2 |
| 20260509052413 | 11 | 183 | 1.6 | 3.2 | 0.00 | 0.00 | 0.00 | 54 | 1005.3 |
| 20260509051912 | 11 | 163 | 3.2 | 3.2 | 0.00 | 0.00 | 0.00 | 53 | 1005.3 |
| 20260509051414 | 11 | 160 | 3.2 | 3.2 | 0.00 | 0.00 | 0.00 | 52 | 1005.2 |
| 20260509050913 | 11 | 154 | 3.2 | 6.4 | 0.00 | 0.00 | 0.00 | 52 | 1005.2 |
| 20260509050413 | 11 | 160 | 3.2 | 3.2 | 0.00 | 0.00 | 0.00 | 52 | 1005.2 |
| 20260509045914 | 11 | 152 | 3.2 | 3.2 | 0.00 | 0.00 | 0.00 | 51 | 1005.2 |
| 20260509045412 | 11 | 152 | 4.8 | 6.4 | 0.00 | 0.00 | 0.00 | 51 | 1005.2 |
| 20260509044912 | 11 | 127 | 3.2 | 3.2 | 0.00 | 0.00 | 0.00 | 51 | 1005.2 |
| 20260509044412 | 11 | 145 | 3.2 | 3.2 | 0.00 | 0.00 | 0.00 | 51 | 1005.2 |
| 20260509043912 | 11 | 131 | 3.2 | 3.2 | 0.00 | 0.00 | 0.00 | 50 | 1005.2 |
| 20260509043412 | 11 | 131 | 3.2 | 3.2 | 0.00 | 0.00 | 0.00 | 49 | 1005.3 |
| 20260509042913 | 11 | 139 | 3.2 | 3.2 | 0.00 | 0.00 | 0.00 | 48 | 1005.3 |
| 20260509042412 | 11 | 160 | 3.2 | 4.8 | 0.00 | 0.00 | 0.00 | 47 | 1005.4 |
| 20260509041912 | 11 | 164 | 3.2 | 3.2 | 0.00 | 0.00 | 0.00 | 47 | 1005.4 |
| 20260509041412 | 11 | 139 | 3.2 | 3.2 | 0.00 | 0.00 | 0.00 | 47 | 1005.5 |
| 20260509040916 | 11 | 178 | 1.6 | 3.2 | 0.00 | 0.00 | 0.00 | 47 | 1005.4 |
| 20260509040413 | 11 | 136 | 3.2 | 3.2 | 0.00 | 0.00 | 0.00 | 47 | 1005.5 |
| 20260509035912 | 11 | 133 | 3.2 | 3.2 | 0.00 | 0.00 | 0.00 | 47 | 1005.6 |
| 20260509035412 | 11 | 130 | 3.2 | 4.8 | 0.00 | 0.00 | 0.00 | 47 | 1005.6 |
| 20260509034912 | 11 | 139 | 3.2 | 3.2 | 0.00 | 0.00 | 0.00 | 47 | 1005.7 |
| 20260509034413 | 11 | 128 | 3.2 | 4.8 | 0.00 | 0.00 | 0.00 | 47 | 1005.8 |
| 20260509033912 | 11 | 177 | 3.2 | 3.2 | 0.00 | 0.00 | 0.00 | 47 | 1005.8 |
| 20260509033412 | 11 | 145 | 3.2 | 3.2 | 0.00 | 0.00 | 0.00 | 47 | 1005.8 |
| 20260509032912 | 11 | 180 | 3.2 | 3.2 | 0.00 | 0.00 | 0.00 | 46 | 1005.8 |
| 20260509032412 | 11 | 112 | 1.6 | 4.8 | 0.00 | 0.00 | 0.00 | 45 | 1005.8 |
| 20260509031913 | 11 | 170 | 1.6 | 3.2 | 0.00 | 0.00 | 0.00 | 45 | 1005.9 |
| 20260509031412 | 11 | 138 | 1.6 | 1.6 | 0.00 | 0.00 | 0.00 | 45 | 1006.0 |
| 20260509030914 | 11 | 136 | 3.2 | 3.2 | 0.00 | 0.00 | 0.00 | 44 | 1006.0 |
| 20260509030412 | 11 | 131 | 1.6 | 1.6 | 0.00 | 0.00 | 0.00 | 43 | 1006.1 |
| 20260509025912 | 11 | 138 | 0.0 | 1.6 | 0.00 | 0.00 | 0.00 | 43 | 1006.1 |
| 20260509025412 | 11 | 137 | 1.6 | 3.2 | 0.00 | 0.00 | 0.00 | 42 | 1006.2 |
| 20260509024913 | 11 | 116 | 1.6 | 3.2 | 0.00 | 0.00 | 0.00 | 41 | 1006.3 |
| 20260509024412 | 11 | 161 | 1.6 | 1.6 | 0.00 | 0.00 | 0.00 | 41 | 1006.3 |
| 20260509023913 | 11 | 138 | 1.6 | 3.2 | 0.00 | 0.00 | 0.00 | 40 | 1006.4 |
| 20260509023412 | 11 | 149 | 1.6 | 1.6 | 0.00 | 0.00 | 0.00 | 40 | 1006.4 |
| 20260509022912 | 11 | 128 | 1.6 | 1.6 | 0.00 | 0.00 | 0.00 | 39 | 1006.6 |
| 20260509022412 | 11 | 139 | 1.6 | 1.6 | 0.00 | 0.00 | 0.00 | 39 | 1006.6 |
| 20260509021912 | 11 | 104 | 0.0 | 1.6 | 0.00 | 0.00 | 0.00 | 38 | 1006.7 |
| 20260509021412 | 12 | 126 | 1.6 | 1.6 | 0.00 | 0.00 | 0.00 | 37 | 1006.7 |
| 20260509020912 | 12 | 138 | 1.6 | 1.6 | 0.00 | 0.00 | 0.00 | 37 | 1006.6 |
| 20260509020412 | 12 | 132 | 3.2 | 3.2 | 0.00 | 0.00 | 0.00 | 37 | 1006.6 |
| 20260509015912 | 12 | 147 | 1.6 | 1.6 | 0.00 | 0.00 | 0.00 | 36 | 1006.4 |
| 20260509015412 | 12 | 135 | 0.0 | 1.6 | 0.00 | 0.00 | 0.00 | 36 | 1006.4 |
| 20260509014912 | 12 | 116 | 1.6 | 3.2 | 0.00 | 0.00 | 0.00 | 36 | 1006.4 |
| 20260509014412 | 12 | 125 | 1.6 | 1.6 | 0.00 | 0.00 | 0.00 | 36 | 1006.4 |
| 20260509013912 | 12 | 137 | 1.6 | 1.6 | 0.00 | 0.00 | 0.00 | 36 | 1006.4 |
| 20260509013412 | 12 | 123 | 0.0 | 0.0 | 0.00 | 0.00 | 0.00 | 35 | 1006.4 |
| 20260509012912 | 12 | 130 | 0.0 | 1.6 | 0.00 | 0.00 | 0.00 | 35 | 1006.4 |
| 20260509012412 | 12 | 0 | 0.0 | 0.0 | 0.00 | 0.00 | 0.00 | 35 | 1006.4 |
| 20260509011913 | 13 | 136 | 1.6 | 1.6 | 0.00 | 0.00 | 0.00 | 33 | 1006.3 |
| 20260509011413 | 13 | 38 | 0.0 | 1.6 | 0.00 | 0.00 | 0.00 | 33 | 1006.3 |
| 20260509010912 | 13 | 93 | 1.6 | 1.6 | 0.00 | 0.00 | 0.00 | 32 | 1006.4 |
| 20260509010412 | 13 | 140 | 0.0 | 0.0 | 0.00 | 0.00 | 0.00 | 31 | 1006.4 |
| 20260509005912 | 13 | 0 | 0.0 | 0.0 | 0.00 | 0.00 | 0.00 | 31 | 1006.4 |
| 20260509005412 | 13 | 0 | 0.0 | 0.0 | 0.00 | 0.00 | 0.00 | 31 | 1006.3 |
| 20260509004913 | 14 | 0 | 0.0 | 0.0 | 0.00 | 0.00 | 0.00 | 30 | 1006.4 |
| 20260509004412 | 14 | 0 | 0.0 | 0.0 | 0.00 | 0.00 | 0.00 | 29 | 1006.4 |
| 20260509003913 | 15 | 112 | 0.0 | 1.6 | 0.00 | 0.00 | 0.00 | 28 | 1006.3 |
| 20260509003412 | 15 | 0 | 0.0 | 0.0 | 0.00 | 0.00 | 0.00 | 27 | 1006.4 |
| 20260509002913 | 15 | 0 | 0.0 | 0.0 | 0.00 | 0.00 | 0.00 | 27 | 1006.4 |
| 20260509002413 | 15 | 107 | 1.6 | 1.6 | 0.00 | 0.00 | 0.00 | 26 | 1006.4 |
| 20260509001912 | 15 | 0 | 0.0 | 0.0 | 0.00 | 0.00 | 0.00 | 25 | 1006.6 |
| 20260509001414 | 15 | 99 | 3.2 | 6.4 | 0.00 | 0.00 | 0.00 | 24 | 1006.4 |
| 20260509000912 | 16 | 123 | 1.6 | 1.6 | 0.00 | 0.00 | 0.00 | 25 | 1006.6 |
| 20260509000412 | 16 | 196 | 1.6 | 3.2 | 0.00 | 0.00 | 0.00 | 23 | 1006.6 |
| 20260508235912 | 16 | 211 | 3.2 | 3.2 | 0.00 | 0.00 | 0.00 | 24 | 1006.6 |
| 20260508235413 | 16 | 164 | 1.6 | 3.2 | 0.00 | 0.00 | 0.00 | 23 | 1006.8 |
| 20260508234912 | 16 | 187 | 1.6 | 3.2 | 0.00 | 0.00 | 0.00 | 22 | 1006.9 |
| 20260508234412 | 17 | 122 | 3.2 | 3.2 | 0.00 | 0.00 | 0.00 | 21 | 1006.9 |
| 20260508233912 | 18 | 0 | 0.0 | 0.0 | 0.00 | 0.00 | 0.00 | 21 | 1007.0 |
| 20260508233412 | 18 | 166 | 3.2 | 4.8 | 0.00 | 0.00 | 0.00 | 19 | 1007.1 |
| 20260508232913 | 18 | 228 | 1.6 | 3.2 | 0.00 | 0.00 | 0.00 | 20 | 1007.2 |
| 20260508232413 | 18 | 143 | 3.2 | 4.8 | 0.00 | 0.00 | 0.00 | 21 | 1007.2 |
| 20260508231912 | 18 | 163 | 1.6 | 3.2 | 0.00 | 0.00 | 0.00 | 20 | 1007.3 |
| 20260508231413 | 18 | 201 | 1.6 | 1.6 | 0.00 | 0.00 | 0.00 | 20 | 1007.3 |
| 20260508230912 | 18 | 174 | 4.8 | 6.4 | 0.00 | 0.00 | 0.00 | 19 | 1007.4 |
| 20260508230412 | 18 | 143 | 3.2 | 3.2 | 0.00 | 0.00 | 0.00 | 21 | 1007.4 |
| 20260508225912 | 18 | 352 | 3.2 | 3.2 | 0.00 | 0.00 | 0.00 | 20 | 1007.5 |
| 20260508225412 | 18 | 197 | 3.2 | 3.2 | 0.00 | 0.00 | 0.00 | 21 | 1007.5 |
| 20260508224912 | 18 | 91 | 3.2 | 3.2 | 0.00 | 0.00 | 0.00 | 20 | 1007.5 |
| 20260508224417 | 18 | 316 | 3.2 | 4.8 | 0.00 | 0.00 | 0.00 | 20 | 1007.5 |
| 20260508223913 | 18 | 200 | 3.2 | 6.4 | 0.00 | 0.00 | 0.00 | 20 | 1007.5 |
| 20260508223413 | 18 | 262 | 1.6 | 3.2 | 0.00 | 0.00 | 0.00 | 22 | 1007.5 |
| 20260508222912 | 18 | 216 | 3.2 | 8.0 | 0.00 | 0.00 | 0.00 | 23 | 1007.5 |
| 20260508222412 | 18 | 177 | 4.8 | 9.7 | 0.00 | 0.00 | 0.00 | 21 | 1007.5 |
| 20260508221914 | 18 | 218 | 3.2 | 4.8 | 0.00 | 0.00 | 0.00 | 21 | 1007.6 |
| 20260508221413 | 18 | 208 | 3.2 | 4.8 | 0.00 | 0.00 | 0.00 | 21 | 1007.6 |
| 20260508220912 | 18 | 183 | 4.8 | 6.4 | 0.00 | 0.00 | 0.00 | 22 | 1007.6 |
| 20260508220415 | 17 | 211 | 1.6 | 3.2 | 0.00 | 0.00 | 0.00 | 24 | 1007.8 |
| 20260508215912 | 18 | 166 | 3.2 | 6.4 | 0.00 | 0.00 | 0.00 | 23 | 1007.8 |
| 20260508215412 | 18 | 173 | 4.8 | 4.8 | 0.00 | 0.00 | 0.00 | 24 | 1007.7 |
| 20260508214913 | 18 | 190 | 3.2 | 8.0 | 0.00 | 0.00 | 0.00 | 24 | 1007.7 |
| 20260508214412 | 18 | 187 | 3.2 | 9.7 | 0.00 | 0.00 | 0.00 | 26 | 1007.7 |
| 20260508213913 | 18 | 199 | 4.8 | 11.3 | 0.00 | 0.00 | 0.00 | 25 | 1007.7 |
| 20260508213412 | 18 | 269 | 4.8 | 6.4 | 0.00 | 0.00 | 0.00 | 26 | 1007.7 |
| 20260508212913 | 18 | 197 | 6.4 | 8.0 | 0.00 | 0.00 | 0.00 | 24 | 1007.7 |
| 20260508212413 | 18 | 192 | 1.6 | 3.2 | 0.00 | 0.00 | 0.00 | 27 | 1007.8 |
| 20260508211918 | 17 | 223 | 1.6 | 3.2 | 0.00 | 0.00 | 0.00 | 27 | 1007.9 |
| 20260508211412 | 17 | 305 | 4.8 | 4.8 | 0.00 | 0.00 | 0.00 | 27 | 1007.9 |
| 20260508210913 | 17 | 285 | 3.2 | 3.2 | 0.00 | 0.00 | 0.00 | 29 | 1008.0 |
| 20260508210413 | 17 | 313 | 3.2 | 6.4 | 0.00 | 0.00 | 0.00 | 28 | 1008.0 |
| 20260508205913 | 17 | 268 | 3.2 | 3.2 | 0.00 | 0.00 | 0.00 | 28 | 1008.0 |
| 20260508205412 | 17 | 228 | 3.2 | 6.4 | 0.00 | 0.00 | 0.00 | 29 | 1008.0 |
| 20260508204914 | 17 | 135 | 3.2 | 4.8 | 0.00 | 0.00 | 0.00 | 28 | 1008.1 |
| 20260508204413 | 17 | 315 | 3.2 | 6.4 | 0.00 | 0.00 | 0.00 | 28 | 1008.2 |
| 20260508203914 | 17 | 238 | 3.2 | 4.8 | 0.00 | 0.00 | 0.00 | 27 | 1008.2 |
| 20260508203414 | 17 | 302 | 4.8 | 8.0 | 0.00 | 0.00 | 0.00 | 28 | 1008.3 |
| 20260508202913 | 17 | 206 | 3.2 | 4.8 | 0.00 | 0.00 | 0.00 | 29 | 1008.4 |
| 20260508202414 | 17 | 181 | 6.4 | 9.7 | 0.00 | 0.00 | 0.00 | 27 | 1008.4 |
| 20260508201912 | 17 | 179 | 4.8 | 8.0 | 0.00 | 0.00 | 0.00 | 27 | 1008.5 |
| 20260508201413 | 17 | 345 | 6.4 | 9.7 | 0.00 | 0.00 | 0.00 | 29 | 1008.5 |
| 20260508200913 | 17 | 309 | 1.6 | 1.6 | 0.00 | 0.00 | 0.00 | 29 | 1008.6 |
| 20260508200413 | 17 | 224 | 4.8 | 8.0 | 0.00 | 0.00 | 0.00 | 29 | 1008.7 |
| 20260508195912 | 17 | 239 | 3.2 | 6.4 | 0.00 | 0.00 | 0.00 | 30 | 1008.7 |
| 20260508195420 | 17 | 266 | 3.2 | 3.2 | 0.00 | 0.00 | 0.00 | 28 | 1008.8 |
| 20260508194912 | 17 | 189 | 6.4 | 9.7 | 0.00 | 0.00 | 0.00 | 28 | 1008.9 |
| 20260508194413 | 17 | 196 | 3.2 | 6.4 | 0.00 | 0.00 | 0.00 | 31 | 1008.9 |
| 20260508193913 | 17 | 191 | 4.8 | 8.0 | 0.00 | 0.00 | 0.00 | 32 | 1008.9 |
| 20260508193416 | 16 | 175 | 4.8 | 8.0 | 0.00 | 0.00 | 0.00 | 31 | 1009.0 |
| 20260508192912 | 17 | 178 | 3.2 | 6.4 | 0.00 | 0.00 | 0.00 | 32 | 1009.1 |
| 20260508192416 | 17 | 180 | 4.8 | 8.0 | 0.00 | 0.00 | 0.00 | 31 | 1009.1 |
| 20260508191914 | 17 | 314 | 3.2 | 4.8 | 0.00 | 0.00 | 0.00 | 35 | 1009.1 |
| 20260508191414 | 16 | 351 | 3.2 | 6.4 | 0.00 | 0.00 | 0.00 | 34 | 1009.2 |
| 20260508190912 | 16 | 356 | 3.2 | 9.7 | 0.00 | 0.00 | 0.00 | 35 | 1009.2 |
| 20260508190412 | 16 | 233 | 3.2 | 3.2 | 0.00 | 0.00 | 0.00 | 34 | 1009.3 |
| 20260508185914 | 16 | 224 | 3.2 | 3.2 | 0.00 | 0.00 | 0.00 | 32 | 1009.3 |
| 20260508185416 | 16 | 216 | 3.2 | 6.4 | 0.00 | 0.00 | 0.00 | 32 | 1009.3 |
| 20260508184914 | 16 | 318 | 6.4 | 8.0 | 0.00 | 0.00 | 0.00 | 32 | 1009.3 |
| 20260508184416 | 16 | 179 | 3.2 | 4.8 | 0.00 | 0.00 | 0.00 | 31 | 1009.4 |
| 20260508183913 | 16 | 256 | 3.2 | 8.0 | 0.00 | 0.00 | 0.00 | 31 | 1009.4 |
| 20260508183417 | 16 | 353 | 3.2 | 8.0 | 0.00 | 0.00 | 0.00 | 30 | 1009.4 |
| 20260508182912 | 16 | 146 | 3.2 | 3.2 | 0.00 | 0.00 | 0.00 | 29 | 1009.5 |
| 20260508182414 | 16 | 192 | 3.2 | 6.4 | 0.00 | 0.00 | 0.00 | 31 | 1009.6 |
| 20260508181913 | 16 | 197 | 4.8 | 6.4 | 0.00 | 0.00 | 0.00 | 28 | 1009.6 |
| 20260508181412 | 16 | 257 | 4.8 | 6.4 | 0.00 | 0.00 | 0.00 | 31 | 1009.6 |
| 20260508180913 | 16 | 61 | 3.2 | 3.2 | 0.00 | 0.00 | 0.00 | 30 | 1009.6 |
| 20260508180413 | 16 | 160 | 4.8 | 6.4 | 0.00 | 0.00 | 0.00 | 30 | 1009.7 |
| 20260508175913 | 16 | 128 | 3.2 | 6.4 | 0.00 | 0.00 | 0.00 | 30 | 1009.7 |
| 20260508175414 | 16 | 4 | 4.8 | 8.0 | 0.00 | 0.00 | 0.00 | 30 | 1009.7 |
| 20260508174916 | 16 | 172 | 1.6 | 4.8 | 0.00 | 0.00 | 0.00 | 32 | 1009.8 |
| 20260508174414 | 16 | 309 | 3.2 | 3.2 | 0.00 | 0.00 | 0.00 | 31 | 1009.9 |
| 20260508173916 | 16 | 262 | 3.2 | 3.2 | 0.00 | 0.00 | 0.00 | 31 | 1009.9 |
| 20260508173412 | 16 | 346 | 3.2 | 6.4 | 0.00 | 0.00 | 0.00 | 30 | 1010.0 |
| 20260508172916 | 16 | 10 | 6.4 | 9.7 | 0.00 | 0.00 | 0.00 | 28 | 1010.1 |
| 20260508172416 | 16 | 249 | 1.6 | 3.2 | 0.00 | 0.00 | 0.00 | 29 | 1010.1 |
| 20260508171916 | 16 | 186 | 3.2 | 6.4 | 0.00 | 0.00 | 0.00 | 27 | 1010.2 |
| 20260508171415 | 16 | 145 | 3.2 | 4.8 | 0.00 | 0.00 | 0.00 | 30 | 1010.2 |
| 20260508170915 | 16 | 8 | 4.8 | 8.0 | 0.00 | 0.00 | 0.00 | 26 | 1010.3 |
| 20260508170413 | 16 | 61 | 0.0 | 3.2 | 0.00 | 0.00 | 0.00 | 30 | 1010.3 |
| 20260508165913 | 16 | 132 | 1.6 | 3.2 | 0.00 | 0.00 | 0.00 | 29 | 1010.3 |
| 20260508165416 | 16 | 217 | 3.2 | 3.2 | 0.00 | 0.00 | 0.00 | 29 | 1010.4 |
| 20260508164917 | 16 | 332 | 6.4 | 6.4 | 0.00 | 0.00 | 0.00 | 28 | 1010.4 |
| 20260508164412 | 16 | 338 | 4.8 | 8.0 | 0.00 | 0.00 | 0.00 | 28 | 1010.5 |
| 20260508163917 | 16 | 277 | 1.6 | 3.2 | 0.00 | 0.00 | 0.00 | 32 | 1010.7 |
| 20260508163414 | 16 | 343 | 3.2 | 4.8 | 0.00 | 0.00 | 0.00 | 30 | 1010.7 |
| 20260508162913 | 16 | 346 | 3.2 | 8.0 | 0.00 | 0.00 | 0.00 | 28 | 1010.7 |
| 20260508162416 | 16 | 190 | 0.0 | 1.6 | 0.00 | 0.00 | 0.00 | 29 | 1010.8 |
| 20260508161914 | 16 | 186 | 3.2 | 6.4 | 0.00 | 0.00 | 0.00 | 28 | 1010.8 |
| 20260508161417 | 16 | 8 | 3.2 | 6.4 | 0.00 | 0.00 | 0.00 | 30 | 1010.8 |
| 20260508160918 | 15 | 216 | 1.6 | 4.8 | 0.00 | 0.00 | 0.00 | 29 | 1010.8 |
| 20260508160416 | 15 | 108 | 3.2 | 3.2 | 0.00 | 0.00 | 0.00 | 32 | 1010.8 |
| 20260508155913 | 15 | 210 | 3.2 | 4.8 | 0.00 | 0.00 | 0.00 | 29 | 1010.8 |
| 20260508155415 | 15 | 190 | 3.2 | 4.8 | 0.00 | 0.00 | 0.00 | 29 | 1010.8 |
| 20260508154916 | 15 | 199 | 4.8 | 6.4 | 0.00 | 0.00 | 0.00 | 32 | 1010.8 |
| 20260508154416 | 15 | 213 | 3.2 | 4.8 | 0.00 | 0.00 | 0.00 | 31 | 1010.8 |
| 20260508153916 | 15 | 142 | 3.2 | 4.8 | 0.00 | 0.00 | 0.00 | 31 | 1010.7 |
| 20260508153417 | 15 | 349 | 4.8 | 6.4 | 0.00 | 0.00 | 0.00 | 33 | 1010.7 |
| 20260508152916 | 15 | 210 | 3.2 | 6.4 | 0.00 | 0.00 | 0.00 | 34 | 1010.8 |
| 20260508152417 | 15 | 194 | 1.6 | 3.2 | 0.00 | 0.00 | 0.00 | 33 | 1010.7 |
| 20260508151913 | 15 | 211 | 3.2 | 4.8 | 0.00 | 0.00 | 0.00 | 35 | 1010.8 |
| 20260508151414 | 15 | 168 | 3.2 | 3.2 | 0.00 | 0.00 | 0.00 | 36 | 1010.8 |
| 20260508150913 | 14 | 30 | 0.0 | 1.6 | 0.00 | 0.00 | 0.00 | 42 | 1010.9 |
| 20260508150413 | 14 | 166 | 4.8 | 6.4 | 0.00 | 0.00 | 0.00 | 42 | 1010.9 |
| 20260508145914 | 14 | 158 | 1.6 | 1.6 | 0.00 | 0.00 | 0.00 | 48 | 1011.0 |
| 20260508145413 | 13 | 148 | 3.2 | 4.8 | 0.00 | 0.00 | 0.00 | 50 | 1011.0 |
| 20260508144914 | 13 | 339 | 4.8 | 4.8 | 0.00 | 0.00 | 0.00 | 48 | 1011.0 |
| 20260508144414 | 13 | 163 | 3.2 | 4.8 | 0.00 | 0.00 | 0.00 | 50 | 1011.1 |
| 20260508143913 | 13 | 235 | 3.2 | 3.2 | 0.00 | 0.00 | 0.00 | 50 | 1011.1 |
| 20260508143415 | 13 | 140 | 3.2 | 3.2 | 0.00 | 0.00 | 0.00 | 54 | 1011.1 |
| 20260508142912 | 12 | 213 | 3.2 | 3.2 | 0.00 | 0.00 | 0.00 | 55 | 1011.1 |
| 20260508142414 | 12 | 183 | 3.2 | 4.8 | 0.00 | 0.00 | 0.00 | 58 | 1011.0 |
| 20260508141913 | 12 | 212 | 1.6 | 3.2 | 0.00 | 0.00 | 0.00 | 58 | 1011.0 |
| 20260508141415 | 12 | 179 | 1.6 | 3.2 | 0.00 | 0.00 | 0.00 | 62 | 1011.0 |
| 20260508140913 | 11 | 105 | 3.2 | 4.8 | 0.00 | 0.00 | 0.00 | 62 | 1011.0 |
| 20260508140414 | 11 | 121 | 3.2 | 4.8 | 0.00 | 0.00 | 0.00 | 64 | 1011.0 |
| 20260508135914 | 11 | 183 | 3.2 | 4.8 | 0.00 | 0.00 | 0.00 | 66 | 1011.1 |
| 20260508135412 | 11 | 182 | 3.2 | 3.2 | 0.00 | 0.00 | 0.00 | 69 | 1011.1 |
| 20260508134912 | 10 | 186 | 3.2 | 6.4 | 0.00 | 0.00 | 0.00 | 69 | 1011.2 |
| 20260508134413 | 10 | 168 | 1.6 | 3.2 | 0.00 | 0.00 | 0.00 | 70 | 1011.1 |
| 20260508133912 | 10 | 269 | 0.0 | 1.6 | 0.00 | 0.00 | 0.00 | 74 | 1011.1 |
| 20260508133415 | 10 | 185 | 3.2 | 3.2 | 0.00 | 0.00 | 0.00 | 75 | 1011.2 |
| 20260508132915 | 10 | 162 | 4.8 | 4.8 | 0.00 | 0.00 | 0.00 | 76 | 1011.2 |
| 20260508132413 | 10 | 154 | 3.2 | 3.2 | 0.00 | 0.00 | 0.00 | 76 | 1011.3 |
| 20260508131914 | 9 | 164 | 3.2 | 4.8 | 0.00 | 0.00 | 0.00 | 77 | 1011.4 |
| 20260508131412 | 9 | 202 | 3.2 | 4.8 | 0.00 | 0.00 | 0.00 | 77 | 1011.4 |
| 20260508130914 | 8 | 190 | 3.2 | 3.2 | 0.00 | 0.00 | 0.00 | 78 | 1011.5 |
| 20260508130413 | 8 | 161 | 1.6 | 3.2 | 0.00 | 0.00 | 0.00 | 79 | 1011.6 |
| 20260508125916 | 8 | 190 | 0.0 | 3.2 | 0.00 | 0.00 | 0.00 | 80 | 1011.6 |
| 20260508125416 | 7 | 116 | 0.0 | 0.0 | 0.00 | 0.00 | 0.00 | 81 | 1011.6 |
| 20260508124916 | 7 | 192 | 1.6 | 1.6 | 0.00 | 0.00 | 0.00 | 83 | 1011.7 |
| 20260508124416 | 7 | 191 | 0.0 | 0.0 | 0.00 | 0.00 | 0.00 | 86 | 1012.0 |
| 20260508123912 | 6 | 205 | 0.0 | 1.6 | 0.00 | 0.00 | 0.00 | 87 | 1012.1 |
| 20260508123412 | 6 | 0 | 0.0 | 0.0 | 0.00 | 0.00 | 0.00 | 89 | 1012.3 |
| 20260508122912 | 5 | 0 | 0.0 | 0.0 | 0.00 | 0.00 | 0.00 | 91 | 1012.5 |
| 20260508122414 | 5 | 195 | 1.6 | 3.2 | 0.00 | 0.00 | 0.00 | 91 | 1012.6 |
| 20260508121912 | 5 | 0 | 0.0 | 0.0 | 0.00 | 0.00 | 0.00 | 92 | 1012.8 |
| 20260508121412 | 4 | 176 | 0.0 | 1.6 | 0.00 | 0.00 | 0.00 | 93 | 1012.8 |
| 20260508120914 | 4 | 0 | 0.0 | 0.0 | 0.00 | 0.00 | 0.00 | 93 | 1012.9 |
| 20260508120414 | 3 | 197 | 1.6 | 3.2 | 0.00 | 0.00 | 0.00 | 94 | 1012.8 |
| 20260508115913 | 3 | 194 | 1.6 | 3.2 | 0.00 | 0.00 | 0.00 | 93 | 1012.7 |
| 20260508115414 | 2 | 0 | 0.0 | 0.0 | 0.00 | 0.00 | 0.00 | 93 | 1012.6 |
| 20260508114912 | 2 | 201 | 0.0 | 1.6 | 0.00 | 0.00 | 0.00 | 93 | 1012.6 |
| 20260508114412 | 2 | 0 | 0.0 | 0.0 | 0.00 | 0.00 | 0.00 | 93 | 1012.6 |
| 20260508113912 | 2 | 0 | 0.0 | 0.0 | 0.00 | 0.00 | 0.00 | 93 | 1012.6 |
| 20260508113414 | 1 | 0 | 0.0 | 0.0 | 0.00 | 0.00 | 0.00 | 93 | 1012.5 |
| 20260508112913 | 1 | 0 | 0.0 | 0.0 | 0.00 | 0.00 | 0.00 | 92 | 1012.5 |
| 20260508112412 | 1 | 0 | 0.0 | 0.0 | 0.00 | 0.00 | 0.00 | 92 | 1012.5 |
| 20260508111912 | 1 | 0 | 0.0 | 0.0 | 0.00 | 0.00 | 0.00 | 92 | 1012.5 |
| 20260508111414 | 1 | 0 | 0.0 | 0.0 | 0.00 | 0.00 | 0.00 | 92 | 1012.4 |
| 20260508110913 | 1 | 0 | 0.0 | 0.0 | 0.00 | 0.00 | 0.00 | 92 | 1012.4 |
| 20260508110416 | 1 | 144 | 1.6 | 1.6 | 0.00 | 0.00 | 0.00 | 92 | 1012.4 |
| 20260508105913 | 1 | 0 | 0.0 | 0.0 | 0.00 | 0.00 | 0.00 | 91 | 1012.3 |
| 20260508105412 | 1 | 0 | 0.0 | 0.0 | 0.00 | 0.00 | 0.00 | 91 | 1012.3 |
| 20260508104914 | 1 | 0 | 0.0 | 0.0 | 0.00 | 0.00 | 0.00 | 91 | 1012.3 |
| 20260508104412 | 1 | 0 | 0.0 | 0.0 | 0.00 | 0.00 | 0.00 | 91 | 1012.4 |
| 20260508103915 | 1 | 141 | 1.6 | 1.6 | 0.00 | 0.00 | 0.00 | 91 | 1012.3 |
| 20260508103413 | 1 | 0 | 0.0 | 0.0 | 0.00 | 0.00 | 0.00 | 91 | 1012.1 |
| 20260508102914 | 1 | 0 | 0.0 | 0.0 | 0.00 | 0.00 | 0.00 | 90 | 1012.1 |
| 20260508102417 | 1 | 0 | 0.0 | 0.0 | 0.00 | 0.00 | 0.00 | 90 | 1012.0 |
| 20260508101913 | 1 | 0 | 0.0 | 0.0 | 0.00 | 0.00 | 0.00 | 90 | 1011.9 |
| 20260508101414 | 1 | 0 | 0.0 | 0.0 | 0.00 | 0.00 | 0.00 | 90 | 1011.9 |
| 20260508100916 | 1 | 0 | 0.0 | 0.0 | 0.00 | 0.00 | 0.00 | 90 | 1011.9 |
| 20260508100416 | 1 | 0 | 0.0 | 0.0 | 0.00 | 0.00 | 0.00 | 90 | 1012.0 |
| 20260508095913 | 1 | 0 | 0.0 | 0.0 | 0.00 | 0.00 | 0.00 | 90 | 1012.0 |
| 20260508095412 | 1 | 36 | 0.0 | 0.0 | 0.00 | 0.00 | 0.00 | 90 | 1012.0 |
| 20260508094912 | 1 | 15 | 1.6 | 1.6 | 0.00 | 0.00 | 0.00 | 90 | 1012.0 |
| 20260508094412 | 1 | 0 | 0.0 | 0.0 | 0.00 | 0.00 | 0.00 | 89 | 1012.0 |
| 20260508093912 | 1 | 0 | 0.0 | 0.0 | 0.00 | 0.00 | 0.00 | 89 | 1011.9 |
| 20260508093412 | 2 | 0 | 0.0 | 0.0 | 0.00 | 0.00 | 0.00 | 89 | 1011.9 |
| 20260508092430 | 2 | 0 | 0.0 | 0.0 | 0.00 | 0.00 | 0.00 | 89 | 1011.9 |
| 20260508091913 | 2 | 0 | 0.0 | 0.0 | 0.00 | 0.00 | 0.00 | 89 | 1011.9 |
| 20260508091414 | 2 | 0 | 0.0 | 0.0 | 0.00 | 0.00 | 0.00 | 89 | 1012.0 |
| 20260508090913 | 2 | 14 | 0.0 | 0.0 | 0.00 | 0.00 | 0.00 | 89 | 1012.1 |